sensor_id;sensor_type;location;lat;lon;timestamp;P1;durP1;ratioP1;P2;durP2;ratioP2
22357;SDS011;11346;50.150;8.150;2023-06-26T00:00:34;13.20;;;6.40;;
22357;SDS011;11346;50.150;8.150;2023-06-26T00:03:02;8.30;;;6.70;;
22357;SDS011;11346;50.150;8.150;2023-06-26T00:05:29;9.87;;;6.50;;
22357;SDS011;11346;50.150;8.150;2023-06-26T00:07:56;8.00;;;6.00;;
22357;SDS011;11346;50.150;8.150;2023-06-26T00:10:25;7.53;;;5.97;;
22357;SDS011;11346;50.150;8.150;2023-06-26T00:12:52;8.07;;;6.10;;
22357;SDS011;11346;50.150;8.150;2023-06-26T00:15:21;7.30;;;6.13;;
22357;SDS011;11346;50.150;8.150;2023-06-26T00:17:48;7.57;;;6.20;;
22357;SDS011;11346;50.150;8.150;2023-06-26T00:20:15;13.13;;;6.00;;
22357;SDS011;11346;50.150;8.150;2023-06-26T00:22:43;9.73;;;5.87;;
22357;SDS011;11346;50.150;8.150;2023-06-26T00:25:11;6.23;;;5.20;;
22357;SDS011;11346;50.150;8.150;2023-06-26T00:27:38;8.40;;;5.50;;
22357;SDS011;11346;50.150;8.150;2023-06-26T00:30:05;6.73;;;5.77;;
22357;SDS011;11346;50.150;8.150;2023-06-26T00:32:34;7.03;;;5.80;;
22357;SDS011;11346;50.150;8.150;2023-06-26T00:35:01;7.27;;;5.90;;
22357;SDS011;11346;50.150;8.150;2023-06-26T00:37:28;7.07;;;6.07;;
22357;SDS011;11346;50.150;8.150;2023-06-26T00:39:55;6.70;;;5.80;;
22357;SDS011;11346;50.150;8.150;2023-06-26T00:42:22;8.03;;;6.23;;
22357;SDS011;11346;50.150;8.150;2023-06-26T00:44:49;7.03;;;6.07;;
22357;SDS011;11346;50.150;8.150;2023-06-26T00:47:16;9.73;;;5.97;;
22357;SDS011;11346;50.150;8.150;2023-06-26T00:49:45;7.23;;;6.07;;
22357;SDS011;11346;50.150;8.150;2023-06-26T00:52:12;7.70;;;6.13;;
22357;SDS011;11346;50.150;8.150;2023-06-26T00:54:39;8.60;;;6.13;;
22357;SDS011;11346;50.150;8.150;2023-06-26T00:57:06;7.43;;;6.40;;
22357;SDS011;11346;50.150;8.150;2023-06-26T00:59:33;7.20;;;6.07;;
22357;SDS011;11346;50.150;8.150;2023-06-26T01:02:01;8.30;;;6.23;;
22357;SDS011;11346;50.150;8.150;2023-06-26T01:04:28;7.90;;;6.17;;
22357;SDS011;11346;50.150;8.150;2023-06-26T01:06:59;9.07;;;6.60;;
22357;SDS011;11346;50.150;8.150;2023-06-26T01:09:26;8.30;;;6.43;;
22357;SDS011;11346;50.150;8.150;2023-06-26T01:11:53;7.17;;;6.27;;
22357;SDS011;11346;50.150;8.150;2023-06-26T01:14:20;8.03;;;6.30;;
22357;SDS011;11346;50.150;8.150;2023-06-26T01:16:47;7.50;;;6.13;;
22357;SDS011;11346;50.150;8.150;2023-06-26T01:19:18;7.67;;;5.80;;
22357;SDS011;11346;50.150;8.150;2023-06-26T01:21:50;8.00;;;6.03;;
22357;SDS011;11346;50.150;8.150;2023-06-26T01:24:19;7.53;;;5.53;;
22357;SDS011;11346;50.150;8.150;2023-06-26T01:26:53;8.97;;;6.20;;
22357;SDS011;11346;50.150;8.150;2023-06-26T01:29:20;7.40;;;6.00;;
22357;SDS011;11346;50.150;8.150;2023-06-26T01:31:49;6.57;;;5.70;;
22357;SDS011;11346;50.150;8.150;2023-06-26T01:34:16;7.57;;;5.73;;
22357;SDS011;11346;50.150;8.150;2023-06-26T01:36:44;7.47;;;6.27;;
22357;SDS011;11346;50.150;8.150;2023-06-26T01:39:12;8.07;;;6.57;;
22357;SDS011;11346;50.150;8.150;2023-06-26T01:41:39;7.70;;;5.63;;
22357;SDS011;11346;50.150;8.150;2023-06-26T01:44:14;7.17;;;5.87;;
22357;SDS011;11346;50.150;8.150;2023-06-26T01:46:46;7.73;;;5.97;;
22357;SDS011;11346;50.150;8.150;2023-06-26T01:49:19;6.60;;;5.83;;
22357;SDS011;11346;50.150;8.150;2023-06-26T01:51:51;7.87;;;6.57;;
22357;SDS011;11346;50.150;8.150;2023-06-26T01:54:21;7.97;;;6.27;;
22357;SDS011;11346;50.150;8.150;2023-06-26T01:56:50;9.30;;;6.50;;
22357;SDS011;11346;50.150;8.150;2023-06-26T01:59:20;8.57;;;6.30;;
22357;SDS011;11346;50.150;8.150;2023-06-26T02:01:48;10.00;;;6.50;;
22357;SDS011;11346;50.150;8.150;2023-06-26T02:04:15;9.07;;;6.57;;
22357;SDS011;11346;50.150;8.150;2023-06-26T02:06:42;10.57;;;7.20;;
22357;SDS011;11346;50.150;8.150;2023-06-26T02:09:09;7.70;;;6.37;;
22357;SDS011;11346;50.150;8.150;2023-06-26T02:11:37;8.33;;;6.33;;
22357;SDS011;11346;50.150;8.150;2023-06-26T02:14:04;7.43;;;6.23;;
22357;SDS011;11346;50.150;8.150;2023-06-26T02:16:32;7.47;;;6.30;;
22357;SDS011;11346;50.150;8.150;2023-06-26T02:18:59;6.97;;;5.90;;
22357;SDS011;11346;50.150;8.150;2023-06-26T02:21:26;7.60;;;5.80;;
22357;SDS011;11346;50.150;8.150;2023-06-26T02:23:53;9.03;;;6.00;;
22357;SDS011;11346;50.150;8.150;2023-06-26T02:26:20;8.37;;;6.03;;
22357;SDS011;11346;50.150;8.150;2023-06-26T02:28:47;6.67;;;5.83;;
22357;SDS011;11346;50.150;8.150;2023-06-26T02:31:14;6.87;;;6.07;;
22357;SDS011;11346;50.150;8.150;2023-06-26T02:33:42;7.67;;;6.07;;
22357;SDS011;11346;50.150;8.150;2023-06-26T02:36:10;8.37;;;6.17;;
22357;SDS011;11346;50.150;8.150;2023-06-26T02:38:37;8.17;;;6.20;;
22357;SDS011;11346;50.150;8.150;2023-06-26T02:41:04;7.47;;;5.93;;
22357;SDS011;11346;50.150;8.150;2023-06-26T02:43:31;8.07;;;6.47;;
22357;SDS011;11346;50.150;8.150;2023-06-26T02:45:58;9.17;;;6.40;;
22357;SDS011;11346;50.150;8.150;2023-06-26T02:48:25;7.67;;;6.00;;
22357;SDS011;11346;50.150;8.150;2023-06-26T02:50:54;7.47;;;5.80;;
22357;SDS011;11346;50.150;8.150;2023-06-26T02:53:21;7.70;;;6.17;;
22357;SDS011;11346;50.150;8.150;2023-06-26T02:55:48;12.43;;;6.17;;
22357;SDS011;11346;50.150;8.150;2023-06-26T02:58:15;8.00;;;6.73;;
22357;SDS011;11346;50.150;8.150;2023-06-26T03:00:42;7.80;;;6.23;;
22357;SDS011;11346;50.150;8.150;2023-06-26T03:03:09;8.23;;;6.40;;
22357;SDS011;11346;50.150;8.150;2023-06-26T03:05:38;8.80;;;6.33;;
22357;SDS011;11346;50.150;8.150;2023-06-26T03:08:06;7.80;;;6.13;;
22357;SDS011;11346;50.150;8.150;2023-06-26T03:10:33;7.97;;;6.13;;
22357;SDS011;11346;50.150;8.150;2023-06-26T03:13:00;9.67;;;6.30;;
22357;SDS011;11346;50.150;8.150;2023-06-26T03:15:27;8.07;;;6.77;;
22357;SDS011;11346;50.150;8.150;2023-06-26T03:17:54;9.77;;;6.17;;
22357;SDS011;11346;50.150;8.150;2023-06-26T03:20:21;8.57;;;5.60;;
22357;SDS011;11346;50.150;8.150;2023-06-26T03:22:48;8.17;;;6.47;;
22357;SDS011;11346;50.150;8.150;2023-06-26T03:25:16;8.13;;;6.00;;
22357;SDS011;11346;50.150;8.150;2023-06-26T03:27:43;7.70;;;6.23;;
22357;SDS011;11346;50.150;8.150;2023-06-26T03:30:11;7.63;;;6.50;;
22357;SDS011;11346;50.150;8.150;2023-06-26T03:32:38;9.30;;;6.77;;
22357;SDS011;11346;50.150;8.150;2023-06-26T03:35:05;10.50;;;6.53;;
22357;SDS011;11346;50.150;8.150;2023-06-26T03:37:34;8.00;;;6.03;;
22357;SDS011;11346;50.150;8.150;2023-06-26T03:40:01;8.00;;;6.57;;
22357;SDS011;11346;50.150;8.150;2023-06-26T03:42:30;8.67;;;6.03;;
22357;SDS011;11346;50.150;8.150;2023-06-26T03:44:58;9.67;;;5.90;;
22357;SDS011;11346;50.150;8.150;2023-06-26T03:47:25;9.53;;;6.63;;
22357;SDS011;11346;50.150;8.150;2023-06-26T03:49:52;7.33;;;5.80;;
22357;SDS011;11346;50.150;8.150;2023-06-26T03:52:19;8.53;;;6.00;;
22357;SDS011;11346;50.150;8.150;2023-06-26T03:54:46;8.00;;;6.30;;
22357;SDS011;11346;50.150;8.150;2023-06-26T03:57:13;8.27;;;6.33;;
22357;SDS011;11346;50.150;8.150;2023-06-26T03:59:42;8.17;;;6.27;;
22357;SDS011;11346;50.150;8.150;2023-06-26T04:02:09;9.07;;;6.60;;
22357;SDS011;11346;50.150;8.150;2023-06-26T04:04:37;8.60;;;6.67;;
22357;SDS011;11346;50.150;8.150;2023-06-26T04:07:04;8.23;;;5.87;;
22357;SDS011;11346;50.150;8.150;2023-06-26T04:09:32;9.83;;;6.03;;
22357;SDS011;11346;50.150;8.150;2023-06-26T04:11:59;7.43;;;6.13;;
22357;SDS011;11346;50.150;8.150;2023-06-26T04:14:26;8.17;;;6.47;;
22357;SDS011;11346;50.150;8.150;2023-06-26T04:16:54;7.20;;;5.77;;
22357;SDS011;11346;50.150;8.150;2023-06-26T04:19:22;11.27;;;6.00;;
22357;SDS011;11346;50.150;8.150;2023-06-26T04:21:49;8.73;;;6.30;;
22357;SDS011;11346;50.150;8.150;2023-06-26T04:24:16;8.87;;;6.53;;
22357;SDS011;11346;50.150;8.150;2023-06-26T04:26:43;9.23;;;6.17;;
22357;SDS011;11346;50.150;8.150;2023-06-26T04:29:11;8.90;;;5.93;;
22357;SDS011;11346;50.150;8.150;2023-06-26T04:31:38;9.77;;;6.33;;
22357;SDS011;11346;50.150;8.150;2023-06-26T04:34:06;10.20;;;6.20;;
22357;SDS011;11346;50.150;8.150;2023-06-26T04:36:33;9.73;;;6.60;;
22357;SDS011;11346;50.150;8.150;2023-06-26T04:39:04;9.67;;;6.30;;
22357;SDS011;11346;50.150;8.150;2023-06-26T04:41:31;7.23;;;5.87;;
22357;SDS011;11346;50.150;8.150;2023-06-26T04:43:58;8.07;;;5.60;;
22357;SDS011;11346;50.150;8.150;2023-06-26T04:46:25;8.93;;;5.90;;
22357;SDS011;11346;50.150;8.150;2023-06-26T04:48:52;9.83;;;5.83;;
22357;SDS011;11346;50.150;8.150;2023-06-26T04:51:24;12.57;;;6.60;;
22357;SDS011;11346;50.150;8.150;2023-06-26T04:53:52;7.00;;;6.07;;
22357;SDS011;11346;50.150;8.150;2023-06-26T04:56:19;10.33;;;6.07;;
22357;SDS011;11346;50.150;8.150;2023-06-26T04:58:46;8.77;;;5.97;;
22357;SDS011;11346;50.150;8.150;2023-06-26T05:01:13;8.63;;;6.23;;
22357;SDS011;11346;50.150;8.150;2023-06-26T05:03:40;10.50;;;6.90;;
22357;SDS011;11346;50.150;8.150;2023-06-26T05:06:07;9.60;;;6.37;;
22357;SDS011;11346;50.150;8.150;2023-06-26T05:08:35;9.03;;;6.80;;
22357;SDS011;11346;50.150;8.150;2023-06-26T05:11:02;8.70;;;7.20;;
22357;SDS011;11346;50.150;8.150;2023-06-26T05:13:29;11.43;;;6.80;;
22357;SDS011;11346;50.150;8.150;2023-06-26T05:15:56;9.37;;;7.13;;
22357;SDS011;11346;50.150;8.150;2023-06-26T05:18:23;11.70;;;5.83;;
22357;SDS011;11346;50.150;8.150;2023-06-26T05:20:50;7.40;;;5.93;;
22357;SDS011;11346;50.150;8.150;2023-06-26T05:23:18;7.90;;;6.33;;
22357;SDS011;11346;50.150;8.150;2023-06-26T05:25:48;9.97;;;6.70;;
22357;SDS011;11346;50.150;8.150;2023-06-26T05:28:15;10.20;;;6.90;;
22357;SDS011;11346;50.150;8.150;2023-06-26T05:30:43;8.13;;;6.10;;
22357;SDS011;11346;50.150;8.150;2023-06-26T05:33:10;9.23;;;5.90;;
22357;SDS011;11346;50.150;8.150;2023-06-26T05:35:38;10.63;;;6.53;;
22357;SDS011;11346;50.150;8.150;2023-06-26T05:38:05;11.77;;;7.03;;
22357;SDS011;11346;50.150;8.150;2023-06-26T05:40:33;8.93;;;6.50;;
22357;SDS011;11346;50.150;8.150;2023-06-26T05:43:02;10.33;;;6.03;;
22357;SDS011;11346;50.150;8.150;2023-06-26T05:45:29;8.43;;;6.07;;
22357;SDS011;11346;50.150;8.150;2023-06-26T05:47:56;7.13;;;5.70;;
22357;SDS011;11346;50.150;8.150;2023-06-26T05:50:23;9.10;;;6.40;;
22357;SDS011;11346;50.150;8.150;2023-06-26T05:52:51;8.40;;;6.27;;
22357;SDS011;11346;50.150;8.150;2023-06-26T05:55:18;6.83;;;6.00;;
22357;SDS011;11346;50.150;8.150;2023-06-26T05:57:45;7.83;;;6.30;;
22357;SDS011;11346;50.150;8.150;2023-06-26T06:00:14;7.30;;;5.67;;
22357;SDS011;11346;50.150;8.150;2023-06-26T06:02:41;7.77;;;5.47;;
22357;SDS011;11346;50.150;8.150;2023-06-26T06:05:09;6.57;;;5.43;;
22357;SDS011;11346;50.150;8.150;2023-06-26T06:07:36;7.57;;;5.90;;
22357;SDS011;11346;50.150;8.150;2023-06-26T06:10:04;10.03;;;6.50;;
22357;SDS011;11346;50.150;8.150;2023-06-26T06:12:31;7.97;;;5.60;;
22357;SDS011;11346;50.150;8.150;2023-06-26T06:14:58;10.27;;;5.60;;
22357;SDS011;11346;50.150;8.150;2023-06-26T06:17:26;8.87;;;6.00;;
22357;SDS011;11346;50.150;8.150;2023-06-26T06:19:53;10.63;;;6.20;;
22357;SDS011;11346;50.150;8.150;2023-06-26T06:22:20;8.77;;;5.33;;
22357;SDS011;11346;50.150;8.150;2023-06-26T06:24:48;9.77;;;5.70;;
22357;SDS011;11346;50.150;8.150;2023-06-26T06:27:15;6.60;;;5.63;;
22357;SDS011;11346;50.150;8.150;2023-06-26T06:29:42;8.53;;;5.80;;
22357;SDS011;11346;50.150;8.150;2023-06-26T06:32:09;8.33;;;6.27;;
22357;SDS011;11346;50.150;8.150;2023-06-26T06:34:37;7.27;;;5.40;;
22357;SDS011;11346;50.150;8.150;2023-06-26T06:37:05;7.10;;;5.47;;
22357;SDS011;11346;50.150;8.150;2023-06-26T06:39:32;6.17;;;5.50;;
22357;SDS011;11346;50.150;8.150;2023-06-26T06:41:59;6.87;;;5.60;;
22357;SDS011;11346;50.150;8.150;2023-06-26T06:44:26;8.33;;;5.87;;
22357;SDS011;11346;50.150;8.150;2023-06-26T06:46:55;7.57;;;5.80;;
22357;SDS011;11346;50.150;8.150;2023-06-26T06:49:22;6.93;;;5.70;;
22357;SDS011;11346;50.150;8.150;2023-06-26T06:51:50;9.43;;;5.50;;
22357;SDS011;11346;50.150;8.150;2023-06-26T06:54:17;5.90;;;5.27;;
22357;SDS011;11346;50.150;8.150;2023-06-26T06:56:45;8.57;;;5.60;;
22357;SDS011;11346;50.150;8.150;2023-06-26T06:59:12;7.37;;;5.70;;
22357;SDS011;11346;50.150;8.150;2023-06-26T07:01:39;7.23;;;5.83;;
22357;SDS011;11346;50.150;8.150;2023-06-26T07:04:07;6.97;;;5.47;;
22357;SDS011;11346;50.150;8.150;2023-06-26T07:06:34;7.23;;;5.40;;
22357;SDS011;11346;50.150;8.150;2023-06-26T07:09:02;7.30;;;5.60;;
22357;SDS011;11346;50.150;8.150;2023-06-26T07:11:30;7.93;;;5.73;;
22357;SDS011;11346;50.150;8.150;2023-06-26T07:13:57;7.33;;;5.60;;
22357;SDS011;11346;50.150;8.150;2023-06-26T07:16:24;7.60;;;6.33;;
22357;SDS011;11346;50.150;8.150;2023-06-26T07:18:51;6.30;;;5.43;;
22357;SDS011;11346;50.150;8.150;2023-06-26T07:21:19;8.20;;;5.93;;
22357;SDS011;11346;50.150;8.150;2023-06-26T07:23:47;6.70;;;5.50;;
22357;SDS011;11346;50.150;8.150;2023-06-26T07:26:15;8.47;;;5.97;;
22357;SDS011;11346;50.150;8.150;2023-06-26T07:28:42;6.00;;;5.40;;
22357;SDS011;11346;50.150;8.150;2023-06-26T07:31:09;7.77;;;5.50;;
22357;SDS011;11346;50.150;8.150;2023-06-26T07:33:36;7.53;;;5.50;;
22357;SDS011;11346;50.150;8.150;2023-06-26T07:36:03;6.77;;;5.53;;
22357;SDS011;11346;50.150;8.150;2023-06-26T07:38:30;6.40;;;5.53;;
22357;SDS011;11346;50.150;8.150;2023-06-26T07:40:57;6.83;;;5.07;;
22357;SDS011;11346;50.150;8.150;2023-06-26T07:43:26;6.27;;;5.50;;
22357;SDS011;11346;50.150;8.150;2023-06-26T07:45:53;7.37;;;5.80;;
22357;SDS011;11346;50.150;8.150;2023-06-26T07:48:23;7.40;;;5.43;;
22357;SDS011;11346;50.150;8.150;2023-06-26T07:50:50;7.13;;;5.83;;
22357;SDS011;11346;50.150;8.150;2023-06-26T07:53:18;11.43;;;6.00;;
22357;SDS011;11346;50.150;8.150;2023-06-26T07:55:45;7.00;;;5.83;;
22357;SDS011;11346;50.150;8.150;2023-06-26T07:58:12;7.53;;;5.50;;
22357;SDS011;11346;50.150;8.150;2023-06-26T08:00:41;7.43;;;5.50;;
22357;SDS011;11346;50.150;8.150;2023-06-26T08:03:08;5.93;;;5.33;;
22357;SDS011;11346;50.150;8.150;2023-06-26T08:05:35;5.37;;;4.87;;
22357;SDS011;11346;50.150;8.150;2023-06-26T08:08:02;7.80;;;5.67;;
22357;SDS011;11346;50.150;8.150;2023-06-26T08:10:30;7.53;;;5.87;;
22357;SDS011;11346;50.150;8.150;2023-06-26T08:12:57;8.53;;;5.30;;
22357;SDS011;11346;50.150;8.150;2023-06-26T08:15:24;6.57;;;5.60;;
22357;SDS011;11346;50.150;8.150;2023-06-26T08:17:52;8.00;;;6.10;;
22357;SDS011;11346;50.150;8.150;2023-06-26T08:20:19;6.37;;;5.77;;
22357;SDS011;11346;50.150;8.150;2023-06-26T08:22:47;8.13;;;5.47;;
22357;SDS011;11346;50.150;8.150;2023-06-26T08:25:16;6.60;;;5.30;;
22357;SDS011;11346;50.150;8.150;2023-06-26T08:27:43;8.03;;;6.13;;
22357;SDS011;11346;50.150;8.150;2023-06-26T08:30:10;7.37;;;5.77;;
22357;SDS011;11346;50.150;8.150;2023-06-26T08:32:38;6.43;;;5.80;;
22357;SDS011;11346;50.150;8.150;2023-06-26T08:35:07;6.80;;;5.63;;
22357;SDS011;11346;50.150;8.150;2023-06-26T08:37:35;8.40;;;5.73;;
22357;SDS011;11346;50.150;8.150;2023-06-26T08:40:02;6.87;;;5.73;;
22357;SDS011;11346;50.150;8.150;2023-06-26T08:42:29;6.27;;;5.50;;
22357;SDS011;11346;50.150;8.150;2023-06-26T08:44:56;8.57;;;5.87;;
22357;SDS011;11346;50.150;8.150;2023-06-26T08:47:23;6.63;;;5.90;;
22357;SDS011;11346;50.150;8.150;2023-06-26T08:49:51;10.13;;;6.40;;
22357;SDS011;11346;50.150;8.150;2023-06-26T08:52:22;7.60;;;6.33;;
22357;SDS011;11346;50.150;8.150;2023-06-26T08:54:52;6.57;;;5.90;;
22357;SDS011;11346;50.150;8.150;2023-06-26T08:57:19;7.07;;;6.30;;
22357;SDS011;11346;50.150;8.150;2023-06-26T08:59:47;6.80;;;5.90;;
22357;SDS011;11346;50.150;8.150;2023-06-26T09:02:14;11.77;;;6.17;;
22357;SDS011;11346;50.150;8.150;2023-06-26T09:04:41;7.47;;;5.53;;
22357;SDS011;11346;50.150;8.150;2023-06-26T09:07:08;5.27;;;4.77;;
22357;SDS011;11346;50.150;8.150;2023-06-26T09:09:37;5.97;;;4.90;;
22357;SDS011;11346;50.150;8.150;2023-06-26T09:12:04;5.47;;;4.80;;
22357;SDS011;11346;50.150;8.150;2023-06-26T09:14:31;7.20;;;5.50;;
22357;SDS011;11346;50.150;8.150;2023-06-26T09:16:58;6.00;;;5.10;;
22357;SDS011;11346;50.150;8.150;2023-06-26T09:19:26;9.73;;;5.20;;
22357;SDS011;11346;50.150;8.150;2023-06-26T09:21:53;6.97;;;5.10;;
22357;SDS011;11346;50.150;8.150;2023-06-26T09:24:21;6.07;;;5.23;;
22357;SDS011;11346;50.150;8.150;2023-06-26T09:26:50;5.87;;;4.87;;
22357;SDS011;11346;50.150;8.150;2023-06-26T09:29:17;5.23;;;4.73;;
22357;SDS011;11346;50.150;8.150;2023-06-26T09:31:44;7.10;;;5.00;;
22357;SDS011;11346;50.150;8.150;2023-06-26T09:34:11;5.23;;;4.60;;
22357;SDS011;11346;50.150;8.150;2023-06-26T09:36:38;5.77;;;5.07;;
22357;SDS011;11346;50.150;8.150;2023-06-26T09:39:10;6.90;;;5.20;;
22357;SDS011;11346;50.150;8.150;2023-06-26T09:41:37;5.53;;;4.70;;
22357;SDS011;11346;50.150;8.150;2023-06-26T09:44:05;10.57;;;5.03;;
22357;SDS011;11346;50.150;8.150;2023-06-26T09:46:33;8.10;;;4.90;;
22357;SDS011;11346;50.150;8.150;2023-06-26T09:49:01;7.83;;;5.20;;
22357;SDS011;11346;50.150;8.150;2023-06-26T09:51:29;7.80;;;5.37;;
22357;SDS011;11346;50.150;8.150;2023-06-26T09:53:57;6.57;;;5.30;;
22357;SDS011;11346;50.150;8.150;2023-06-26T09:56:24;10.17;;;5.37;;
22357;SDS011;11346;50.150;8.150;2023-06-26T09:58:52;7.83;;;5.30;;
22357;SDS011;11346;50.150;8.150;2023-06-26T10:01:21;8.17;;;5.73;;
22357;SDS011;11346;50.150;8.150;2023-06-26T10:03:48;7.70;;;5.80;;
22357;SDS011;11346;50.150;8.150;2023-06-26T10:06:16;11.43;;;5.50;;
22357;SDS011;11346;50.150;8.150;2023-06-26T10:08:45;5.87;;;5.27;;
22357;SDS011;11346;50.150;8.150;2023-06-26T10:11:14;10.40;;;5.90;;
22357;SDS011;11346;50.150;8.150;2023-06-26T10:13:43;8.53;;;5.37;;
22357;SDS011;11346;50.150;8.150;2023-06-26T10:16:11;8.23;;;5.10;;
22357;SDS011;11346;50.150;8.150;2023-06-26T10:18:39;10.93;;;6.10;;
22357;SDS011;11346;50.150;8.150;2023-06-26T10:21:07;5.77;;;5.23;;
22357;SDS011;11346;50.150;8.150;2023-06-26T10:23:35;6.67;;;5.20;;
22357;SDS011;11346;50.150;8.150;2023-06-26T10:26:03;7.70;;;5.20;;
22357;SDS011;11346;50.150;8.150;2023-06-26T10:28:31;6.23;;;5.13;;
22357;SDS011;11346;50.150;8.150;2023-06-26T10:30:58;6.53;;;5.17;;
22357;SDS011;11346;50.150;8.150;2023-06-26T10:33:27;8.13;;;5.00;;
22357;SDS011;11346;50.150;8.150;2023-06-26T10:35:55;8.83;;;4.50;;
22357;SDS011;11346;50.150;8.150;2023-06-26T10:38:48;14.57;;;4.93;;
22357;SDS011;11346;50.150;8.150;2023-06-26T10:41:15;8.47;;;5.03;;
22357;SDS011;11346;50.150;8.150;2023-06-26T10:43:45;14.10;;;4.73;;
22357;SDS011;11346;50.150;8.150;2023-06-26T10:46:15;6.30;;;4.50;;
22357;SDS011;11346;50.150;8.150;2023-06-26T10:48:56;5.33;;;4.60;;
22357;SDS011;11346;50.150;8.150;2023-06-26T10:51:26;12.23;;;4.87;;
22357;SDS011;11346;50.150;8.150;2023-06-26T10:53:53;7.03;;;4.90;;
22357;SDS011;11346;50.150;8.150;2023-06-26T10:56:21;8.30;;;4.93;;
22357;SDS011;11346;50.150;8.150;2023-06-26T10:58:48;5.63;;;4.87;;
22357;SDS011;11346;50.150;8.150;2023-06-26T11:01:17;14.13;;;5.50;;
22357;SDS011;11346;50.150;8.150;2023-06-26T11:03:45;9.80;;;5.40;;
22357;SDS011;11346;50.150;8.150;2023-06-26T11:06:15;6.90;;;5.10;;
22357;SDS011;11346;50.150;8.150;2023-06-26T11:08:46;7.17;;;4.57;;
22357;SDS011;11346;50.150;8.150;2023-06-26T11:11:14;8.50;;;4.77;;
22357;SDS011;11346;50.150;8.150;2023-06-26T11:13:41;5.57;;;4.40;;
22357;SDS011;11346;50.150;8.150;2023-06-26T11:16:08;7.73;;;4.37;;
22357;SDS011;11346;50.150;8.150;2023-06-26T11:18:35;6.80;;;4.50;;
22357;SDS011;11346;50.150;8.150;2023-06-26T11:21:06;5.70;;;4.60;;
22357;SDS011;11346;50.150;8.150;2023-06-26T11:23:33;6.73;;;4.97;;
22357;SDS011;11346;50.150;8.150;2023-06-26T11:26:15;6.57;;;5.00;;
22357;SDS011;11346;50.150;8.150;2023-06-26T11:28:46;7.53;;;5.37;;
22357;SDS011;11346;50.150;8.150;2023-06-26T11:31:29;11.20;;;5.70;;
22357;SDS011;11346;50.150;8.150;2023-06-26T11:33:56;8.00;;;4.93;;
22357;SDS011;11346;50.150;8.150;2023-06-26T11:36:24;10.00;;;5.10;;
22357;SDS011;11346;50.150;8.150;2023-06-26T11:38:54;7.03;;;5.23;;
22357;SDS011;11346;50.150;8.150;2023-06-26T11:41:23;7.70;;;5.30;;
22357;SDS011;11346;50.150;8.150;2023-06-26T11:43:50;10.97;;;5.63;;
22357;SDS011;11346;50.150;8.150;2023-06-26T11:46:19;7.90;;;5.13;;
22357;SDS011;11346;50.150;8.150;2023-06-26T11:48:46;6.07;;;5.00;;
22357;SDS011;11346;50.150;8.150;2023-06-26T11:51:13;7.10;;;5.10;;
22357;SDS011;11346;50.150;8.150;2023-06-26T11:53:40;9.13;;;5.40;;
22357;SDS011;11346;50.150;8.150;2023-06-26T11:56:08;9.27;;;5.03;;
22357;SDS011;11346;50.150;8.150;2023-06-26T11:58:36;9.37;;;5.10;;
22357;SDS011;11346;50.150;8.150;2023-06-26T12:01:03;8.23;;;4.87;;
22357;SDS011;11346;50.150;8.150;2023-06-26T12:03:31;12.37;;;4.93;;
22357;SDS011;11346;50.150;8.150;2023-06-26T12:05:59;6.73;;;4.93;;
22357;SDS011;11346;50.150;8.150;2023-06-26T12:08:31;7.83;;;5.00;;
22357;SDS011;11346;50.150;8.150;2023-06-26T12:10:58;12.27;;;4.77;;
22357;SDS011;11346;50.150;8.150;2023-06-26T12:13:25;7.50;;;4.50;;
22357;SDS011;11346;50.150;8.150;2023-06-26T12:15:53;8.87;;;4.60;;
22357;SDS011;11346;50.150;8.150;2023-06-26T12:18:20;6.23;;;4.63;;
22357;SDS011;11346;50.150;8.150;2023-06-26T12:20:49;7.97;;;5.23;;
22357;SDS011;11346;50.150;8.150;2023-06-26T12:23:16;6.27;;;4.23;;
22357;SDS011;11346;50.150;8.150;2023-06-26T12:25:43;8.10;;;4.63;;
22357;SDS011;11346;50.150;8.150;2023-06-26T12:28:15;7.13;;;4.33;;
22357;SDS011;11346;50.150;8.150;2023-06-26T12:30:45;7.83;;;4.40;;
22357;SDS011;11346;50.150;8.150;2023-06-26T12:33:14;6.83;;;4.43;;
22357;SDS011;11346;50.150;8.150;2023-06-26T12:35:41;6.83;;;4.40;;
22357;SDS011;11346;50.150;8.150;2023-06-26T12:38:09;9.13;;;5.10;;
22357;SDS011;11346;50.150;8.150;2023-06-26T12:40:44;7.57;;;4.13;;
22357;SDS011;11346;50.150;8.150;2023-06-26T12:43:11;7.57;;;4.00;;
22357;SDS011;11346;50.150;8.150;2023-06-26T12:45:53;9.97;;;3.80;;
22357;SDS011;11346;50.150;8.150;2023-06-26T12:48:21;9.53;;;4.07;;
22357;SDS011;11346;50.150;8.150;2023-06-26T12:50:48;7.60;;;4.57;;
22357;SDS011;11346;50.150;8.150;2023-06-26T12:53:17;6.13;;;3.80;;
22357;SDS011;11346;50.150;8.150;2023-06-26T12:55:44;7.17;;;3.63;;
22357;SDS011;11346;50.150;8.150;2023-06-26T12:58:11;6.43;;;3.93;;
22357;SDS011;11346;50.150;8.150;2023-06-26T13:00:38;8.40;;;3.97;;
22357;SDS011;11346;50.150;8.150;2023-06-26T13:03:06;6.57;;;3.40;;
22357;SDS011;11346;50.150;8.150;2023-06-26T13:05:34;6.20;;;3.40;;
22357;SDS011;11346;50.150;8.150;2023-06-26T13:08:01;4.80;;;3.40;;
22357;SDS011;11346;50.150;8.150;2023-06-26T13:10:29;4.63;;;3.47;;
22357;SDS011;11346;50.150;8.150;2023-06-26T13:12:56;6.67;;;3.43;;
22357;SDS011;11346;50.150;8.150;2023-06-26T13:15:23;8.40;;;3.57;;
22357;SDS011;11346;50.150;8.150;2023-06-26T13:17:50;8.20;;;3.40;;
22357;SDS011;11346;50.150;8.150;2023-06-26T13:20:17;6.73;;;3.50;;
22357;SDS011;11346;50.150;8.150;2023-06-26T13:22:45;5.13;;;3.67;;
22357;SDS011;11346;50.150;8.150;2023-06-26T13:25:12;9.30;;;3.90;;
22357;SDS011;11346;50.150;8.150;2023-06-26T13:27:39;9.10;;;3.40;;
22357;SDS011;11346;50.150;8.150;2023-06-26T13:30:07;7.37;;;4.87;;
22357;SDS011;11346;50.150;8.150;2023-06-26T13:32:34;6.37;;;3.50;;
22357;SDS011;11346;50.150;8.150;2023-06-26T13:35:01;5.93;;;3.50;;
22357;SDS011;11346;50.150;8.150;2023-06-26T13:37:29;5.00;;;3.00;;
22357;SDS011;11346;50.150;8.150;2023-06-26T13:39:57;6.13;;;3.10;;
22357;SDS011;11346;50.150;8.150;2023-06-26T13:42:24;7.07;;;2.90;;
22357;SDS011;11346;50.150;8.150;2023-06-26T13:44:51;5.63;;;3.03;;
22357;SDS011;11346;50.150;8.150;2023-06-26T13:47:18;7.00;;;2.60;;
22357;SDS011;11346;50.150;8.150;2023-06-26T13:49:46;8.57;;;3.13;;
22357;SDS011;11346;50.150;8.150;2023-06-26T13:52:13;11.00;;;3.03;;
22357;SDS011;11346;50.150;8.150;2023-06-26T13:54:40;7.63;;;3.13;;
22357;SDS011;11346;50.150;8.150;2023-06-26T13:57:13;8.53;;;3.00;;
22357;SDS011;11346;50.150;8.150;2023-06-26T13:59:40;5.73;;;2.40;;
22357;SDS011;11346;50.150;8.150;2023-06-26T14:02:07;4.43;;;2.40;;
22357;SDS011;11346;50.150;8.150;2023-06-26T14:04:34;5.53;;;2.70;;
22357;SDS011;11346;50.150;8.150;2023-06-26T14:07:02;5.07;;;2.63;;
22357;SDS011;11346;50.150;8.150;2023-06-26T14:09:29;9.07;;;2.70;;
22357;SDS011;11346;50.150;8.150;2023-06-26T14:11:56;6.10;;;2.50;;
22357;SDS011;11346;50.150;8.150;2023-06-26T14:14:24;5.33;;;2.30;;
22357;SDS011;11346;50.150;8.150;2023-06-26T14:16:51;3.97;;;2.53;;
22357;SDS011;11346;50.150;8.150;2023-06-26T14:19:18;6.70;;;2.43;;
22357;SDS011;11346;50.150;8.150;2023-06-26T14:21:45;10.73;;;2.57;;
22357;SDS011;11346;50.150;8.150;2023-06-26T14:24:12;4.67;;;2.20;;
22357;SDS011;11346;50.150;8.150;2023-06-26T14:26:40;8.37;;;2.70;;
22357;SDS011;11346;50.150;8.150;2023-06-26T14:29:07;10.07;;;2.40;;
22357;SDS011;11346;50.150;8.150;2023-06-26T14:31:35;5.17;;;2.30;;
22357;SDS011;11346;50.150;8.150;2023-06-26T14:34:02;5.50;;;2.10;;
22357;SDS011;11346;50.150;8.150;2023-06-26T14:36:29;5.53;;;2.17;;
22357;SDS011;11346;50.150;8.150;2023-06-26T14:38:57;9.73;;;2.20;;
22357;SDS011;11346;50.150;8.150;2023-06-26T14:41:24;6.57;;;2.17;;
22357;SDS011;11346;50.150;8.150;2023-06-26T14:43:52;5.17;;;2.10;;
22357;SDS011;11346;50.150;8.150;2023-06-26T14:46:19;7.83;;;2.13;;
22357;SDS011;11346;50.150;8.150;2023-06-26T14:48:49;4.87;;;2.00;;